createdAt,value
2023-02-05T00:01:06.124Z,102529.75
2023-02-05T00:06:07.702Z,102524.13
2023-02-05T00:11:12.223Z,102529.16
2023-02-05T00:16:20.111Z,102533.91
2023-02-05T00:21:23.151Z,102530.06
2023-02-05T00:26:24.579Z,102520.19
2023-02-05T00:31:26.307Z,102522.03
2023-02-05T00:36:27.966Z,102522.38
2023-02-05T00:41:29.394Z,102529.41
2023-02-05T00:46:30.881Z,102526.44
2023-02-05T00:51:32.311Z,102522.19
2023-02-05T00:56:33.692Z,102516.63
2023-02-05T01:01:35.476Z,102522.25
2023-02-05T01:06:37.052Z,102519.78
2023-02-05T01:11:38.685Z,102512.50
2023-02-05T01:16:40.036Z,102513.28
2023-02-05T01:21:41.524Z,102506.25
2023-02-05T01:26:42.977Z,102501.00
2023-02-05T01:31:44.428Z,102494.72
2023-02-05T01:36:46.021Z,102481.38
2023-02-05T01:41:47.619Z,102473.88
2023-02-05T01:46:49.187Z,102476.47
2023-02-05T01:51:52.288Z,102476.34
2023-02-05T01:56:57.508Z,102464.53
2023-02-05T02:02:00.879Z,102450.28
2023-02-05T02:07:04.039Z,102448.56
2023-02-05T02:12:06.094Z,102459.84
2023-02-05T02:17:10.133Z,102448.47
2023-02-05T02:22:37.729Z,102430.56
2023-02-05T02:28:00.950Z,102428.81
2023-02-05T02:33:14.584Z,102414.06
2023-02-05T02:38:22.274Z,102398.34
2023-02-05T02:43:32.825Z,102398.63
2023-02-05T02:48:36.846Z,102413.78
2023-02-05T02:53:45.219Z,102413.44
2023-02-05T02:58:55.953Z,102420.59
2023-02-05T03:04:02.540Z,102415.38
2023-02-05T03:09:11.938Z,102421.22
2023-02-05T03:14:13.654Z,102415.38
2023-02-05T03:19:15.139Z,102414.75
2023-02-05T03:24:17.130Z,102392.75
2023-02-05T03:29:25.868Z,102391.56
2023-02-05T03:34:36.581Z,102399.44
2023-02-05T03:39:59.494Z,102400.31
2023-02-05T03:45:18.027Z,102384.41
2023-02-05T03:50:54.866Z,102390.25
2023-02-05T03:56:37.293Z,102387.84
2023-02-05T04:01:38.776Z,102379.41
2023-02-05T04:06:40.443Z,102380.47
2023-02-05T04:11:41.902Z,102383.31
2023-02-05T04:16:43.417Z,102375.09
2023-02-05T04:21:44.865Z,102379.44
2023-02-05T04:26:46.229Z,102376.78
2023-02-05T04:31:47.652Z,102387.97
2023-02-05T04:36:49.079Z,102399.97
2023-02-05T04:41:50.521Z,102406.78
2023-02-05T04:46:51.989Z,102394.38
2023-02-05T04:51:53.432Z,102413.13
2023-02-05T04:56:54.857Z,102415.25
2023-02-05T05:01:56.253Z,102416.91
2023-02-05T05:06:57.707Z,102404.25
2023-02-05T05:11:59.145Z,102398.25
2023-02-05T05:17:00.581Z,102389.88
2023-02-05T05:22:01.978Z,102404.25
2023-02-05T05:27:03.456Z,102397.63
2023-02-05T05:32:05.058Z,102389.22
2023-02-05T05:37:06.540Z,102383.09
2023-02-05T05:42:29.795Z,102373.81
2023-02-05T05:47:31.172Z,102381.47
2023-02-05T05:52:32.995Z,102377.13
2023-02-05T05:57:34.408Z,102381.22
2023-02-05T06:02:40.214Z,102396.75
2023-02-05T06:07:41.621Z,102397.16
2023-02-05T06:12:43.011Z,102389.88
2023-02-05T06:17:44.489Z,102393.16
2023-02-05T06:22:46.002Z,102397.44
2023-02-05T06:27:47.431Z,102399.97
2023-02-05T06:32:48.918Z,102405.06
2023-02-05T06:37:50.353Z,102403.22
2023-02-05T06:42:55.504Z,102415.09
2023-02-05T06:47:57.580Z,102423.00
2023-02-05T06:52:59.079Z,102429.09
2023-02-05T06:58:00.730Z,102422.47
2023-02-05T07:03:02.211Z,102426.44
2023-02-05T07:08:05.364Z,102425.94
2023-02-05T07:13:06.795Z,102424.88
2023-02-05T07:18:08.249Z,102419.44
2023-02-05T07:23:09.660Z,102418.34
2023-02-05T07:28:11.213Z,102407.31
2023-02-05T07:33:12.652Z,102400.63
2023-02-05T07:38:14.182Z,102370.16
2023-02-05T07:43:15.594Z,102370.38
2023-02-05T07:48:16.997Z,102363.13
2023-02-05T07:53:18.697Z,102374.41
2023-02-05T07:58:20.413Z,102374.19
2023-02-05T08:03:23.329Z,102377.16
2023-02-05T08:08:24.925Z,102373.19
2023-02-05T08:13:26.363Z,102375.00
2023-02-05T08:18:27.762Z,102367.53
2023-02-05T08:23:29.460Z,102351.75
2023-02-05T08:28:30.905Z,102351.81
2023-02-05T08:33:32.307Z,102341.94
2023-02-05T08:38:33.789Z,102335.47
2023-02-05T08:43:35.189Z,102328.09
2023-02-05T08:48:36.986Z,102325.78
2023-02-05T08:53:38.956Z,102322.72
2023-02-05T08:58:40.786Z,102319.56
2023-02-05T09:03:42.763Z,102313.88
2023-02-05T09:08:44.197Z,102307.34
2023-02-05T09:13:45.587Z,102303.25
2023-02-05T09:18:46.997Z,102300.78
2023-02-05T09:23:48.425Z,102303.34
2023-02-05T09:28:50.016Z,102308.41
2023-02-05T09:33:51.425Z,102287.34
2023-02-05T09:39:12.049Z,102293.81
2023-02-05T09:44:41.415Z,102302.31
2023-02-05T09:49:53.476Z,102305.63
2023-02-05T09:55:00.112Z,102298.84
2023-02-05T10:00:02.738Z,102299.59
2023-02-05T10:05:14.252Z,102280.72
2023-02-05T10:10:28.792Z,102292.84
2023-02-05T10:15:48.388Z,102309.78
2023-02-05T10:21:05.652Z,102290.34
2023-02-05T10:26:10.907Z,102292.13
2023-02-05T10:31:39.388Z,102280.28
2023-02-05T10:36:41.037Z,102265.16
2023-02-05T10:41:45.999Z,102240.53
2023-02-05T10:46:53.946Z,102262.28
2023-02-05T10:51:55.436Z,102257.25
2023-02-05T10:56:58.453Z,102242.13
2023-02-05T11:02:06.064Z,102244.47
2023-02-05T11:07:32.362Z,102237.78
2023-02-05T11:12:33.836Z,102237.94
2023-02-05T11:17:38.024Z,102211.91
2023-02-05T11:22:40.374Z,102199.63
2023-02-05T11:27:49.132Z,102211.72
2023-02-05T11:32:50.543Z,102208.69
2023-02-05T11:38:13.804Z,102200.56
2023-02-05T11:43:20.137Z,102192.09
2023-02-05T11:48:37.311Z,102195.34
2023-02-05T11:53:49.652Z,102193.69
2023-02-05T11:59:02.655Z,102187.72
2023-02-05T12:04:17.027Z,102181.13
2023-02-05T12:09:24.094Z,102179.38
2023-02-05T12:14:38.032Z,102170.88
2023-02-05T12:20:03.443Z,102174.38
2023-02-05T12:25:24.669Z,102169.31
2023-02-05T12:30:59.833Z,102166.69
2023-02-05T12:36:17.945Z,102166.63
2023-02-05T12:41:30.827Z,102151.28
2023-02-05T12:46:55.711Z,102150.88
2023-02-05T12:52:21.791Z,102147.34
2023-02-05T12:57:41.865Z,102140.94
2023-02-05T13:02:52.700Z,102134.00
2023-02-05T13:08:02.436Z,102123.16
2023-02-05T13:13:11.306Z,102129.25
2023-02-05T13:18:20.502Z,102122.66
2023-02-05T13:23:42.416Z,102119.28
2023-02-05T13:28:59.694Z,102114.09
2023-02-05T13:34:04.915Z,102116.84
2023-02-05T13:39:19.346Z,102119.56
2023-02-05T13:44:34.162Z,102108.69
2023-02-05T13:49:50.469Z,102114.69
2023-02-05T13:55:29.508Z,102107.19
2023-02-05T14:00:31.997Z,102101.94
2023-02-05T14:05:40.634Z,102099.59
2023-02-05T14:10:49.471Z,102104.09
2023-02-05T14:15:54.042Z,102098.41
2023-02-05T14:20:55.506Z,102096.72
2023-02-05T14:26:15.058Z,102089.06
2023-02-05T14:31:47.085Z,102087.56
2023-02-05T14:36:48.735Z,102091.06
2023-02-05T14:41:55.637Z,102092.06
2023-02-05T14:46:59.786Z,102090.53
2023-02-05T14:52:04.612Z,102089.78
2023-02-05T14:57:11.939Z,102083.78
2023-02-05T15:02:52.574Z,102097.25
2023-02-05T15:08:01.097Z,102107.44
2023-02-05T15:13:10.983Z,102110.72
2023-02-05T15:18:20.906Z,102112.38
2023-02-05T15:23:35.878Z,102113.19
2023-02-05T15:28:46.938Z,102112.25
2023-02-05T15:34:18.975Z,102115.56
2023-02-05T15:39:29.428Z,102123.16
2023-02-05T15:44:33.678Z,102122.28
2023-02-05T15:49:40.028Z,102123.97
2023-02-05T15:54:41.479Z,102130.75
2023-02-05T15:59:43.077Z,102139.16
2023-02-05T16:04:45.039Z,102137.41
2023-02-05T16:09:49.050Z,102148.41
2023-02-05T16:15:00.918Z,102162.81
2023-02-05T16:20:28.973Z,102164.50
2023-02-05T16:25:45.860Z,102172.94
2023-02-05T16:30:49.594Z,102173.78
2023-02-05T16:35:51.674Z,102179.63
2023-02-05T16:40:55.640Z,102184.75
2023-02-05T16:46:06.222Z,102197.19
2023-02-05T16:51:37.621Z,102199.59
2023-02-05T16:56:55.227Z,102201.09
2023-02-05T17:01:59.469Z,102212.00
2023-02-05T17:07:03.021Z,102214.59
2023-02-05T17:12:19.410Z,102216.25
2023-02-05T17:17:21.066Z,102231.47
2023-02-05T17:22:22.463Z,102241.56
2023-02-05T17:27:31.451Z,102244.09
2023-02-05T17:32:33.108Z,102250.19
2023-02-05T17:37:34.938Z,102248.41
2023-02-05T17:42:36.424Z,102259.34
2023-02-05T17:47:37.819Z,102258.47
2023-02-05T17:52:39.334Z,102254.19
2023-02-05T17:57:43.055Z,102262.59
2023-02-05T18:02:44.487Z,102269.31
2023-02-05T18:07:47.356Z,102271.75
2023-02-05T18:12:48.889Z,102270.03
2023-02-05T18:17:50.528Z,102280.16
2023-02-05T18:22:51.975Z,102286.88
2023-02-05T18:27:53.454Z,102285.06
2023-02-05T18:32:54.847Z,102294.25
2023-02-05T18:37:56.267Z,102297.50
2023-02-05T18:42:57.665Z,102310.09
2023-02-05T18:48:01.121Z,102321.03
2023-02-05T18:53:02.780Z,102327.66
2023-02-05T18:58:05.171Z,102342.69
2023-02-05T19:03:06.671Z,102336.69
2023-02-05T19:08:08.174Z,102350.97
2023-02-05T19:13:09.765Z,102357.66
2023-02-05T19:18:11.153Z,102368.56
2023-02-05T19:23:12.612Z,102360.19
2023-02-05T19:28:14.072Z,102366.88
2023-02-05T19:33:15.504Z,102363.41
2023-02-05T19:38:16.894Z,102375.97
2023-02-05T19:43:19.663Z,102364.97
2023-02-05T19:48:21.082Z,102375.91
2023-02-05T19:53:23.034Z,102375.81
2023-02-05T19:58:24.423Z,102382.41
2023-02-05T20:03:29.551Z,102397.50
2023-02-05T20:08:32.181Z,102392.47
2023-02-05T20:13:35.518Z,102389.81
2023-02-05T20:18:37.818Z,102382.13
2023-02-05T20:23:40.050Z,102378.72
2023-02-05T20:29:01.028Z,102395.59
2023-02-05T20:34:05.455Z,102402.38
2023-02-05T20:39:07.649Z,102388.97
2023-02-05T20:44:09.432Z,102401.63
2023-02-05T20:49:11.149Z,102406.69
2023-02-05T20:54:12.600Z,102409.16
2023-02-05T20:59:14.014Z,102425.97
2023-02-05T21:04:15.414Z,102432.63
2023-02-05T21:09:17.030Z,102429.25
2023-02-05T21:14:18.657Z,102446.03
2023-02-05T21:19:20.368Z,102451.00
2023-02-05T21:24:21.959Z,102454.28
2023-02-05T21:29:23.407Z,102470.25
2023-02-05T21:34:27.116Z,102483.72
2023-02-05T21:39:28.504Z,102479.44
2023-02-05T21:44:29.949Z,102479.41
2023-02-05T21:49:31.352Z,102503.66
2023-02-05T21:54:32.903Z,102509.19
2023-02-05T21:59:34.301Z,102516.63
2023-02-05T22:04:35.691Z,102527.28
2023-02-05T22:09:37.118Z,102527.31
2023-02-05T22:14:38.526Z,102533.56
2023-02-05T22:19:39.933Z,102535.88
2023-02-05T22:24:41.386Z,102546.78
2023-02-05T22:29:43.080Z,102546.50
2023-02-05T22:34:44.534Z,102562.47
2023-02-05T22:39:46.156Z,102572.66
2023-02-05T22:44:47.551Z,102576.91
2023-02-05T22:49:48.971Z,102583.59
2023-02-05T22:54:50.439Z,102583.50
2023-02-05T22:59:51.825Z,102589.19
2023-02-05T23:04:53.184Z,102583.28
2023-02-05T23:09:54.551Z,102589.81
2023-02-05T23:14:55.943Z,102596.34
2023-02-05T23:19:57.372Z,102594.47
2023-02-05T23:25:00.383Z,102591.94
2023-02-05T23:30:01.972Z,102596.97
2023-02-05T23:35:03.515Z,102614.38
2023-02-05T23:40:05.293Z,102599.88
2023-02-05T23:45:06.990Z,102611.75
2023-02-05T23:50:10.297Z,102609.16
2023-02-05T23:55:11.702Z,102620.91
